sensor_id;sensor_type;location;lat;lon;timestamp;P1;durP1;ratioP1;P2;durP2;ratioP2
8213;SDS011;4148;47.974;7.824;2023-07-28T00:00:05;6.03;;;2.80;;
8213;SDS011;4148;47.974;7.824;2023-07-28T00:02:35;3.60;;;2.93;;
8213;SDS011;4148;47.974;7.824;2023-07-28T00:05:04;3.40;;;3.07;;
8213;SDS011;4148;47.974;7.824;2023-07-28T00:07:32;4.10;;;3.40;;
8213;SDS011;4148;47.974;7.824;2023-07-28T00:10:02;4.70;;;3.47;;
8213;SDS011;4148;47.974;7.824;2023-07-28T00:12:30;3.83;;;2.90;;
8213;SDS011;4148;47.974;7.824;2023-07-28T00:14:58;2.93;;;2.63;;
8213;SDS011;4148;47.974;7.824;2023-07-28T00:17:26;3.10;;;2.80;;
8213;SDS011;4148;47.974;7.824;2023-07-28T00:19:56;5.33;;;2.90;;
8213;SDS011;4148;47.974;7.824;2023-07-28T00:22:23;5.40;;;3.47;;
8213;SDS011;4148;47.974;7.824;2023-07-28T00:24:51;4.67;;;2.67;;
8213;SDS011;4148;47.974;7.824;2023-07-28T00:27:19;3.10;;;2.70;;
8213;SDS011;4148;47.974;7.824;2023-07-28T00:29:47;2.77;;;2.47;;
8213;SDS011;4148;47.974;7.824;2023-07-28T00:32:16;8.13;;;3.30;;
8213;SDS011;4148;47.974;7.824;2023-07-28T00:34:44;3.57;;;2.90;;
8213;SDS011;4148;47.974;7.824;2023-07-28T00:37:13;3.50;;;2.93;;
8213;SDS011;4148;47.974;7.824;2023-07-28T00:39:41;3.83;;;2.97;;
8213;SDS011;4148;47.974;7.824;2023-07-28T00:42:09;5.57;;;2.80;;
8213;SDS011;4148;47.974;7.824;2023-07-28T00:44:37;3.43;;;2.87;;
8213;SDS011;4148;47.974;7.824;2023-07-28T00:47:05;5.90;;;3.07;;
8213;SDS011;4148;47.974;7.824;2023-07-28T00:49:33;3.30;;;2.63;;
8213;SDS011;4148;47.974;7.824;2023-07-28T00:52:01;4.53;;;2.57;;
8213;SDS011;4148;47.974;7.824;2023-07-28T00:54:31;5.37;;;2.60;;
8213;SDS011;4148;47.974;7.824;2023-07-28T00:56:59;3.63;;;3.10;;
8213;SDS011;4148;47.974;7.824;2023-07-28T00:59:27;3.53;;;3.10;;
8213;SDS011;4148;47.974;7.824;2023-07-28T01:01:56;3.33;;;2.70;;
8213;SDS011;4148;47.974;7.824;2023-07-28T01:04:24;3.33;;;2.80;;
8213;SDS011;4148;47.974;7.824;2023-07-28T01:06:53;4.97;;;3.80;;
8213;SDS011;4148;47.974;7.824;2023-07-28T01:09:29;4.43;;;3.00;;
8213;SDS011;4148;47.974;7.824;2023-07-28T01:12:07;4.50;;;3.10;;
8213;SDS011;4148;47.974;7.824;2023-07-28T01:14:35;4.20;;;3.47;;
8213;SDS011;4148;47.974;7.824;2023-07-28T01:17:03;3.53;;;2.90;;
8213;SDS011;4148;47.974;7.824;2023-07-28T01:19:31;3.63;;;3.00;;
8213;SDS011;4148;47.974;7.824;2023-07-28T01:22:03;3.70;;;3.40;;
8213;SDS011;4148;47.974;7.824;2023-07-28T01:24:48;4.20;;;3.23;;
8213;SDS011;4148;47.974;7.824;2023-07-28T01:27:19;4.03;;;2.87;;
8213;SDS011;4148;47.974;7.824;2023-07-28T01:29:48;4.00;;;2.70;;
8213;SDS011;4148;47.974;7.824;2023-07-28T01:32:16;3.37;;;3.07;;
8213;SDS011;4148;47.974;7.824;2023-07-28T01:34:43;3.30;;;3.00;;
8213;SDS011;4148;47.974;7.824;2023-07-28T01:37:11;3.60;;;3.30;;
8213;SDS011;4148;47.974;7.824;2023-07-28T01:39:39;3.80;;;3.17;;
8213;SDS011;4148;47.974;7.824;2023-07-28T01:42:07;3.70;;;3.30;;
8213;SDS011;4148;47.974;7.824;2023-07-28T01:44:37;3.47;;;3.10;;
8213;SDS011;4148;47.974;7.824;2023-07-28T01:47:04;3.97;;;3.00;;
8213;SDS011;4148;47.974;7.824;2023-07-28T01:49:32;3.87;;;2.87;;
8213;SDS011;4148;47.974;7.824;2023-07-28T01:52:00;3.70;;;2.73;;
8213;SDS011;4148;47.974;7.824;2023-07-28T01:54:28;5.87;;;3.20;;
8213;SDS011;4148;47.974;7.824;2023-07-28T01:56:56;3.50;;;3.17;;
8213;SDS011;4148;47.974;7.824;2023-07-28T01:59:24;3.90;;;3.43;;
8213;SDS011;4148;47.974;7.824;2023-07-28T02:01:53;3.67;;;3.10;;
8213;SDS011;4148;47.974;7.824;2023-07-28T02:04:21;4.67;;;3.27;;
8213;SDS011;4148;47.974;7.824;2023-07-28T02:06:49;3.77;;;2.90;;
8213;SDS011;4148;47.974;7.824;2023-07-28T02:09:16;3.87;;;3.10;;
8213;SDS011;4148;47.974;7.824;2023-07-28T02:11:44;4.43;;;2.93;;
8213;SDS011;4148;47.974;7.824;2023-07-28T02:14:12;3.90;;;3.07;;
8213;SDS011;4148;47.974;7.824;2023-07-28T02:16:40;4.40;;;3.07;;
8213;SDS011;4148;47.974;7.824;2023-07-28T02:19:09;4.30;;;3.57;;
8213;SDS011;4148;47.974;7.824;2023-07-28T02:21:37;4.40;;;3.60;;
8213;SDS011;4148;47.974;7.824;2023-07-28T02:24:05;5.83;;;4.03;;
8213;SDS011;4148;47.974;7.824;2023-07-28T02:26:33;3.83;;;3.03;;
8213;SDS011;4148;47.974;7.824;2023-07-28T02:29:01;4.13;;;3.17;;
8213;SDS011;4148;47.974;7.824;2023-07-28T02:31:29;5.30;;;3.47;;
8213;SDS011;4148;47.974;7.824;2023-07-28T02:33:57;4.03;;;3.10;;
8213;SDS011;4148;47.974;7.824;2023-07-28T02:36:26;3.17;;;2.90;;
8213;SDS011;4148;47.974;7.824;2023-07-28T02:38:54;3.07;;;2.77;;
8213;SDS011;4148;47.974;7.824;2023-07-28T02:41:22;3.53;;;2.93;;
8213;SDS011;4148;47.974;7.824;2023-07-28T02:43:49;3.47;;;3.03;;
8213;SDS011;4148;47.974;7.824;2023-07-28T02:46:17;3.87;;;2.90;;
8213;SDS011;4148;47.974;7.824;2023-07-28T02:48:46;9.70;;;3.53;;
8213;SDS011;4148;47.974;7.824;2023-07-28T02:51:14;4.27;;;3.27;;
8213;SDS011;4148;47.974;7.824;2023-07-28T02:53:43;6.13;;;3.50;;
8213;SDS011;4148;47.974;7.824;2023-07-28T02:56:11;4.63;;;3.10;;
8213;SDS011;4148;47.974;7.824;2023-07-28T02:58:39;3.83;;;3.00;;
8213;SDS011;4148;47.974;7.824;2023-07-28T03:01:07;3.97;;;3.33;;
8213;SDS011;4148;47.974;7.824;2023-07-28T03:03:35;3.47;;;3.17;;
8213;SDS011;4148;47.974;7.824;2023-07-28T03:06:02;3.90;;;3.27;;
8213;SDS011;4148;47.974;7.824;2023-07-28T03:08:31;4.63;;;2.90;;
8213;SDS011;4148;47.974;7.824;2023-07-28T03:11:00;4.13;;;3.30;;
8213;SDS011;4148;47.974;7.824;2023-07-28T03:13:28;5.10;;;3.07;;
8213;SDS011;4148;47.974;7.824;2023-07-28T03:15:56;3.47;;;3.13;;
8213;SDS011;4148;47.974;7.824;2023-07-28T03:18:24;5.43;;;3.37;;
8213;SDS011;4148;47.974;7.824;2023-07-28T03:20:52;4.33;;;3.20;;
8213;SDS011;4148;47.974;7.824;2023-07-28T03:23:21;4.63;;;3.33;;
8213;SDS011;4148;47.974;7.824;2023-07-28T03:25:48;3.30;;;3.00;;
8213;SDS011;4148;47.974;7.824;2023-07-28T03:28:17;3.93;;;2.80;;
8213;SDS011;4148;47.974;7.824;2023-07-28T03:30:45;4.73;;;3.77;;
8213;SDS011;4148;47.974;7.824;2023-07-28T03:33:14;3.43;;;3.03;;
8213;SDS011;4148;47.974;7.824;2023-07-28T03:35:41;4.63;;;2.77;;
8213;SDS011;4148;47.974;7.824;2023-07-28T03:38:09;3.10;;;2.80;;
8213;SDS011;4148;47.974;7.824;2023-07-28T03:40:37;4.33;;;2.80;;
8213;SDS011;4148;47.974;7.824;2023-07-28T03:43:05;3.17;;;2.50;;
8213;SDS011;4148;47.974;7.824;2023-07-28T03:45:34;2.83;;;2.43;;
8213;SDS011;4148;47.974;7.824;2023-07-28T03:48:02;3.67;;;2.80;;
8213;SDS011;4148;47.974;7.824;2023-07-28T03:50:30;3.23;;;2.57;;
8213;SDS011;4148;47.974;7.824;2023-07-28T03:52:59;3.20;;;2.63;;
8213;SDS011;4148;47.974;7.824;2023-07-28T03:55:26;5.10;;;3.20;;
8213;SDS011;4148;47.974;7.824;2023-07-28T03:57:54;2.83;;;2.50;;
8213;SDS011;4148;47.974;7.824;2023-07-28T04:00:22;3.60;;;3.30;;
8213;SDS011;4148;47.974;7.824;2023-07-28T04:02:52;8.07;;;2.50;;
8213;SDS011;4148;47.974;7.824;2023-07-28T04:05:19;3.60;;;2.67;;
8213;SDS011;4148;47.974;7.824;2023-07-28T04:07:47;2.90;;;2.50;;
8213;SDS011;4148;47.974;7.824;2023-07-28T04:10:15;3.90;;;2.53;;
8213;SDS011;4148;47.974;7.824;2023-07-28T04:12:43;3.90;;;2.63;;
8213;SDS011;4148;47.974;7.824;2023-07-28T04:15:11;3.90;;;2.77;;
8213;SDS011;4148;47.974;7.824;2023-07-28T04:17:39;4.27;;;2.70;;
8213;SDS011;4148;47.974;7.824;2023-07-28T04:20:08;3.30;;;2.60;;
8213;SDS011;4148;47.974;7.824;2023-07-28T04:22:37;3.33;;;2.93;;
8213;SDS011;4148;47.974;7.824;2023-07-28T04:25:05;3.73;;;2.63;;
8213;SDS011;4148;47.974;7.824;2023-07-28T04:27:34;4.53;;;2.90;;
8213;SDS011;4148;47.974;7.824;2023-07-28T04:30:01;7.30;;;2.77;;
8213;SDS011;4148;47.974;7.824;2023-07-28T04:32:29;3.07;;;2.77;;
8213;SDS011;4148;47.974;7.824;2023-07-28T04:34:57;5.87;;;2.67;;
8213;SDS011;4148;47.974;7.824;2023-07-28T04:37:27;3.60;;;3.03;;
8213;SDS011;4148;47.974;7.824;2023-07-28T04:39:54;3.53;;;2.67;;
8213;SDS011;4148;47.974;7.824;2023-07-28T04:42:22;3.67;;;2.67;;
8213;SDS011;4148;47.974;7.824;2023-07-28T04:44:50;3.03;;;2.50;;
8213;SDS011;4148;47.974;7.824;2023-07-28T04:47:18;4.53;;;2.47;;
8213;SDS011;4148;47.974;7.824;2023-07-28T04:49:46;3.03;;;2.60;;
8213;SDS011;4148;47.974;7.824;2023-07-28T04:52:14;3.20;;;2.70;;
8213;SDS011;4148;47.974;7.824;2023-07-28T04:54:43;3.20;;;2.70;;
8213;SDS011;4148;47.974;7.824;2023-07-28T04:57:11;5.97;;;2.90;;
8213;SDS011;4148;47.974;7.824;2023-07-28T04:59:41;3.20;;;2.70;;
8213;SDS011;4148;47.974;7.824;2023-07-28T05:02:09;4.70;;;2.30;;
8213;SDS011;4148;47.974;7.824;2023-07-28T05:04:37;3.50;;;2.83;;
8213;SDS011;4148;47.974;7.824;2023-07-28T05:07:05;2.87;;;2.47;;
8213;SDS011;4148;47.974;7.824;2023-07-28T05:09:33;2.80;;;2.20;;
8213;SDS011;4148;47.974;7.824;2023-07-28T05:12:02;3.40;;;2.70;;
8213;SDS011;4148;47.974;7.824;2023-07-28T05:14:31;2.83;;;2.37;;
8213;SDS011;4148;47.974;7.824;2023-07-28T05:16:59;3.23;;;2.87;;
8213;SDS011;4148;47.974;7.824;2023-07-28T05:19:27;2.53;;;2.33;;
8213;SDS011;4148;47.974;7.824;2023-07-28T05:21:54;3.13;;;2.10;;
8213;SDS011;4148;47.974;7.824;2023-07-28T05:24:22;2.53;;;2.20;;
8213;SDS011;4148;47.974;7.824;2023-07-28T05:26:50;5.00;;;2.83;;
8213;SDS011;4148;47.974;7.824;2023-07-28T05:29:19;2.80;;;2.30;;
8213;SDS011;4148;47.974;7.824;2023-07-28T05:31:47;4.83;;;2.60;;
8213;SDS011;4148;47.974;7.824;2023-07-28T05:34:15;4.77;;;2.70;;
8213;SDS011;4148;47.974;7.824;2023-07-28T05:36:43;2.70;;;2.30;;
8213;SDS011;4148;47.974;7.824;2023-07-28T05:39:11;3.00;;;2.37;;
8213;SDS011;4148;47.974;7.824;2023-07-28T05:41:39;5.23;;;2.30;;
8213;SDS011;4148;47.974;7.824;2023-07-28T05:44:07;2.57;;;2.13;;
8213;SDS011;4148;47.974;7.824;2023-07-28T05:46:36;3.13;;;2.47;;
8213;SDS011;4148;47.974;7.824;2023-07-28T05:49:04;3.47;;;2.30;;
8213;SDS011;4148;47.974;7.824;2023-07-28T05:51:32;4.23;;;2.33;;
8213;SDS011;4148;47.974;7.824;2023-07-28T05:54:00;3.00;;;2.53;;
8213;SDS011;4148;47.974;7.824;2023-07-28T05:56:28;3.90;;;2.40;;
8213;SDS011;4148;47.974;7.824;2023-07-28T05:58:56;4.20;;;2.33;;
8213;SDS011;4148;47.974;7.824;2023-07-28T06:01:24;5.97;;;3.10;;
8213;SDS011;4148;47.974;7.824;2023-07-28T06:03:54;4.60;;;2.30;;
8213;SDS011;4148;47.974;7.824;2023-07-28T06:06:25;2.50;;;2.20;;
8213;SDS011;4148;47.974;7.824;2023-07-28T06:08:53;3.00;;;2.63;;
8213;SDS011;4148;47.974;7.824;2023-07-28T06:11:21;2.80;;;2.50;;
8213;SDS011;4148;47.974;7.824;2023-07-28T06:13:49;4.47;;;2.07;;
8213;SDS011;4148;47.974;7.824;2023-07-28T06:16:17;3.10;;;2.67;;
8213;SDS011;4148;47.974;7.824;2023-07-28T06:18:45;3.17;;;2.50;;
8213;SDS011;4148;47.974;7.824;2023-07-28T06:21:14;3.20;;;2.43;;
8213;SDS011;4148;47.974;7.824;2023-07-28T06:23:42;3.23;;;2.47;;
8213;SDS011;4148;47.974;7.824;2023-07-28T06:26:10;2.87;;;2.57;;
8213;SDS011;4148;47.974;7.824;2023-07-28T06:28:38;3.07;;;2.40;;
8213;SDS011;4148;47.974;7.824;2023-07-28T06:31:06;2.80;;;2.50;;
8213;SDS011;4148;47.974;7.824;2023-07-28T06:33:34;4.37;;;2.47;;
8213;SDS011;4148;47.974;7.824;2023-07-28T06:36:03;3.13;;;2.60;;
8213;SDS011;4148;47.974;7.824;2023-07-28T06:38:32;2.80;;;2.00;;
8213;SDS011;4148;47.974;7.824;2023-07-28T06:41:00;4.37;;;2.33;;
8213;SDS011;4148;47.974;7.824;2023-07-28T06:43:28;3.40;;;2.67;;
8213;SDS011;4148;47.974;7.824;2023-07-28T06:45:56;9.03;;;3.20;;
8213;SDS011;4148;47.974;7.824;2023-07-28T06:48:24;2.73;;;2.37;;
8213;SDS011;4148;47.974;7.824;2023-07-28T06:50:52;3.00;;;2.63;;
8213;SDS011;4148;47.974;7.824;2023-07-28T06:53:20;4.00;;;2.70;;
8213;SDS011;4148;47.974;7.824;2023-07-28T06:55:49;4.00;;;3.50;;
8213;SDS011;4148;47.974;7.824;2023-07-28T06:58:17;6.00;;;2.97;;
8213;SDS011;4148;47.974;7.824;2023-07-28T07:00:45;4.50;;;2.93;;
8213;SDS011;4148;47.974;7.824;2023-07-28T07:03:12;3.80;;;2.90;;
8213;SDS011;4148;47.974;7.824;2023-07-28T07:05:40;4.13;;;3.23;;
8213;SDS011;4148;47.974;7.824;2023-07-28T07:08:09;4.50;;;3.30;;
8213;SDS011;4148;47.974;7.824;2023-07-28T07:10:38;4.17;;;3.23;;
8213;SDS011;4148;47.974;7.824;2023-07-28T07:13:07;3.40;;;2.90;;
8213;SDS011;4148;47.974;7.824;2023-07-28T07:15:35;3.20;;;2.90;;
8213;SDS011;4148;47.974;7.824;2023-07-28T07:18:03;5.63;;;3.13;;
8213;SDS011;4148;47.974;7.824;2023-07-28T07:20:33;4.00;;;2.90;;
8213;SDS011;4148;47.974;7.824;2023-07-28T07:23:01;5.10;;;3.37;;
8213;SDS011;4148;47.974;7.824;2023-07-28T07:25:29;3.83;;;3.03;;
8213;SDS011;4148;47.974;7.824;2023-07-28T07:27:57;3.20;;;2.90;;
8213;SDS011;4148;47.974;7.824;2023-07-28T07:30:26;3.77;;;3.10;;
8213;SDS011;4148;47.974;7.824;2023-07-28T07:32:54;6.90;;;3.67;;
8213;SDS011;4148;47.974;7.824;2023-07-28T07:35:22;3.30;;;2.63;;
8213;SDS011;4148;47.974;7.824;2023-07-28T07:37:50;4.37;;;3.00;;
8213;SDS011;4148;47.974;7.824;2023-07-28T07:40:18;4.17;;;2.93;;
8213;SDS011;4148;47.974;7.824;2023-07-28T07:42:47;4.40;;;3.33;;
8213;SDS011;4148;47.974;7.824;2023-07-28T07:45:16;4.33;;;3.10;;
8213;SDS011;4148;47.974;7.824;2023-07-28T07:47:45;3.73;;;3.07;;
8213;SDS011;4148;47.974;7.824;2023-07-28T07:50:13;4.30;;;2.87;;
8213;SDS011;4148;47.974;7.824;2023-07-28T07:52:41;5.27;;;3.10;;
8213;SDS011;4148;47.974;7.824;2023-07-28T07:55:09;3.77;;;3.30;;
8213;SDS011;4148;47.974;7.824;2023-07-28T07:57:38;3.50;;;3.13;;
8213;SDS011;4148;47.974;7.824;2023-07-28T08:00:07;3.93;;;2.63;;
8213;SDS011;4148;47.974;7.824;2023-07-28T08:02:37;3.47;;;3.07;;
8213;SDS011;4148;47.974;7.824;2023-07-28T08:05:07;3.03;;;2.50;;
8213;SDS011;4148;47.974;7.824;2023-07-28T08:07:36;4.37;;;2.97;;
8213;SDS011;4148;47.974;7.824;2023-07-28T08:10:04;4.00;;;2.77;;
8213;SDS011;4148;47.974;7.824;2023-07-28T08:12:32;3.03;;;2.60;;
8213;SDS011;4148;47.974;7.824;2023-07-28T08:15:00;3.67;;;2.90;;
8213;SDS011;4148;47.974;7.824;2023-07-28T08:17:28;3.93;;;3.00;;
8213;SDS011;4148;47.974;7.824;2023-07-28T08:19:56;3.10;;;2.80;;
8213;SDS011;4148;47.974;7.824;2023-07-28T08:22:28;3.70;;;2.73;;
8213;SDS011;4148;47.974;7.824;2023-07-28T08:24:56;3.40;;;3.10;;
8213;SDS011;4148;47.974;7.824;2023-07-28T08:27:24;4.00;;;2.80;;
8213;SDS011;4148;47.974;7.824;2023-07-28T08:29:52;3.40;;;2.87;;
8213;SDS011;4148;47.974;7.824;2023-07-28T08:32:19;4.10;;;3.20;;
8213;SDS011;4148;47.974;7.824;2023-07-28T08:34:48;4.70;;;2.97;;
8213;SDS011;4148;47.974;7.824;2023-07-28T08:37:16;4.90;;;3.20;;
8213;SDS011;4148;47.974;7.824;2023-07-28T08:39:45;4.10;;;2.83;;
8213;SDS011;4148;47.974;7.824;2023-07-28T08:42:13;3.93;;;3.20;;
8213;SDS011;4148;47.974;7.824;2023-07-28T08:44:41;4.47;;;2.80;;
8213;SDS011;4148;47.974;7.824;2023-07-28T08:47:11;4.07;;;2.40;;
8213;SDS011;4148;47.974;7.824;2023-07-28T08:49:39;4.93;;;2.90;;
8213;SDS011;4148;47.974;7.824;2023-07-28T08:52:08;4.40;;;2.90;;
8213;SDS011;4148;47.974;7.824;2023-07-28T08:54:35;5.27;;;2.80;;
8213;SDS011;4148;47.974;7.824;2023-07-28T08:57:05;4.10;;;3.00;;
8213;SDS011;4148;47.974;7.824;2023-07-28T08:59:33;3.87;;;2.77;;
8213;SDS011;4148;47.974;7.824;2023-07-28T09:02:02;2.90;;;2.40;;
8213;SDS011;4148;47.974;7.824;2023-07-28T09:04:32;4.00;;;2.77;;
8213;SDS011;4148;47.974;7.824;2023-07-28T09:07:00;3.93;;;2.97;;
8213;SDS011;4148;47.974;7.824;2023-07-28T09:09:32;4.27;;;2.70;;
8213;SDS011;4148;47.974;7.824;2023-07-28T09:12:00;3.10;;;2.50;;
8213;SDS011;4148;47.974;7.824;2023-07-28T09:14:31;3.20;;;2.20;;
8213;SDS011;4148;47.974;7.824;2023-07-28T09:17:08;3.10;;;2.60;;
8213;SDS011;4148;47.974;7.824;2023-07-28T09:19:50;3.50;;;2.67;;
8213;SDS011;4148;47.974;7.824;2023-07-28T09:22:18;3.60;;;2.70;;
8213;SDS011;4148;47.974;7.824;2023-07-28T09:24:47;5.37;;;3.23;;
8213;SDS011;4148;47.974;7.824;2023-07-28T09:27:19;4.10;;;2.80;;
8213;SDS011;4148;47.974;7.824;2023-07-28T09:29:48;2.70;;;2.27;;
8213;SDS011;4148;47.974;7.824;2023-07-28T09:32:26;4.27;;;2.87;;
8213;SDS011;4148;47.974;7.824;2023-07-28T09:35:07;3.10;;;2.63;;
8213;SDS011;4148;47.974;7.824;2023-07-28T09:37:37;6.23;;;2.90;;
8213;SDS011;4148;47.974;7.824;2023-07-28T09:40:07;11.20;;;3.03;;
8213;SDS011;4148;47.974;7.824;2023-07-28T09:42:38;4.50;;;2.97;;
8213;SDS011;4148;47.974;7.824;2023-07-28T09:45:08;3.23;;;2.50;;
8213;SDS011;4148;47.974;7.824;2023-07-28T09:47:51;5.07;;;2.70;;
8213;SDS011;4148;47.974;7.824;2023-07-28T09:50:25;3.03;;;2.73;;
8213;SDS011;4148;47.974;7.824;2023-07-28T09:52:57;4.27;;;3.10;;
8213;SDS011;4148;47.974;7.824;2023-07-28T09:55:28;3.83;;;2.87;;
8213;SDS011;4148;47.974;7.824;2023-07-28T09:57:58;2.90;;;2.60;;
8213;SDS011;4148;47.974;7.824;2023-07-28T10:00:34;4.90;;;2.97;;
8213;SDS011;4148;47.974;7.824;2023-07-28T10:03:02;3.97;;;2.57;;
8213;SDS011;4148;47.974;7.824;2023-07-28T10:05:30;3.97;;;2.37;;
8213;SDS011;4148;47.974;7.824;2023-07-28T10:08:00;3.30;;;2.80;;
8213;SDS011;4148;47.974;7.824;2023-07-28T10:10:30;3.40;;;2.90;;
8213;SDS011;4148;47.974;7.824;2023-07-28T10:12:58;3.03;;;2.67;;
8213;SDS011;4148;47.974;7.824;2023-07-28T10:15:27;3.20;;;2.80;;
8213;SDS011;4148;47.974;7.824;2023-07-28T10:17:58;6.23;;;2.97;;
8213;SDS011;4148;47.974;7.824;2023-07-28T10:20:46;3.37;;;2.60;;
8213;SDS011;4148;47.974;7.824;2023-07-28T10:23:16;3.33;;;2.70;;
8213;SDS011;4148;47.974;7.824;2023-07-28T10:25:45;3.30;;;3.00;;
8213;SDS011;4148;47.974;7.824;2023-07-28T10:28:25;3.50;;;2.67;;
8213;SDS011;4148;47.974;7.824;2023-07-28T10:30:55;3.63;;;3.23;;
8213;SDS011;4148;47.974;7.824;2023-07-28T10:33:28;3.97;;;3.10;;
8213;SDS011;4148;47.974;7.824;2023-07-28T10:35:58;3.77;;;3.33;;
8213;SDS011;4148;47.974;7.824;2023-07-28T10:38:33;3.93;;;3.30;;
8213;SDS011;4148;47.974;7.824;2023-07-28T10:41:09;5.23;;;3.40;;
8213;SDS011;4148;47.974;7.824;2023-07-28T10:43:39;3.77;;;3.37;;
8213;SDS011;4148;47.974;7.824;2023-07-28T10:46:08;4.93;;;3.57;;
8213;SDS011;4148;47.974;7.824;2023-07-28T10:48:42;4.27;;;2.97;;
8213;SDS011;4148;47.974;7.824;2023-07-28T10:51:11;3.87;;;2.90;;
8213;SDS011;4148;47.974;7.824;2023-07-28T10:53:39;4.73;;;3.03;;
8213;SDS011;4148;47.974;7.824;2023-07-28T10:56:07;3.60;;;3.30;;
8213;SDS011;4148;47.974;7.824;2023-07-28T10:58:37;2.97;;;2.63;;
8213;SDS011;4148;47.974;7.824;2023-07-28T11:01:05;3.50;;;3.20;;
8213;SDS011;4148;47.974;7.824;2023-07-28T11:03:33;2.80;;;2.50;;
8213;SDS011;4148;47.974;7.824;2023-07-28T11:06:03;5.63;;;3.37;;
8213;SDS011;4148;47.974;7.824;2023-07-28T11:08:32;3.37;;;3.07;;
8213;SDS011;4148;47.974;7.824;2023-07-28T11:11:02;3.70;;;3.00;;
8213;SDS011;4148;47.974;7.824;2023-07-28T11:13:32;3.80;;;3.30;;
8213;SDS011;4148;47.974;7.824;2023-07-28T11:16:07;3.97;;;3.00;;
8213;SDS011;4148;47.974;7.824;2023-07-28T11:18:37;3.83;;;3.43;;
8213;SDS011;4148;47.974;7.824;2023-07-28T11:21:06;3.90;;;3.50;;
8213;SDS011;4148;47.974;7.824;2023-07-28T11:23:34;3.50;;;2.90;;
8213;SDS011;4148;47.974;7.824;2023-07-28T11:26:01;3.70;;;3.30;;
8213;SDS011;4148;47.974;7.824;2023-07-28T11:28:29;6.70;;;3.60;;
8213;SDS011;4148;47.974;7.824;2023-07-28T11:30:58;4.87;;;3.30;;
8213;SDS011;4148;47.974;7.824;2023-07-28T11:33:27;4.70;;;3.50;;
8213;SDS011;4148;47.974;7.824;2023-07-28T11:35:55;4.80;;;3.70;;
8213;SDS011;4148;47.974;7.824;2023-07-28T11:38:25;3.07;;;2.77;;
8213;SDS011;4148;47.974;7.824;2023-07-28T11:40:55;4.40;;;2.93;;
8213;SDS011;4148;47.974;7.824;2023-07-28T11:43:24;4.40;;;3.10;;
8213;SDS011;4148;47.974;7.824;2023-07-28T11:45:53;3.63;;;3.33;;
8213;SDS011;4148;47.974;7.824;2023-07-28T11:48:21;4.00;;;3.33;;
8213;SDS011;4148;47.974;7.824;2023-07-28T11:50:49;3.63;;;3.33;;
8213;SDS011;4148;47.974;7.824;2023-07-28T11:53:19;4.40;;;3.70;;
8213;SDS011;4148;47.974;7.824;2023-07-28T11:55:49;5.00;;;3.60;;
8213;SDS011;4148;47.974;7.824;2023-07-28T11:58:17;3.70;;;3.10;;
8213;SDS011;4148;47.974;7.824;2023-07-28T12:00:49;3.33;;;3.03;;
8213;SDS011;4148;47.974;7.824;2023-07-28T12:03:17;4.43;;;3.53;;
8213;SDS011;4148;47.974;7.824;2023-07-28T12:05:58;4.97;;;3.50;;
8213;SDS011;4148;47.974;7.824;2023-07-28T12:08:34;4.30;;;3.80;;
8213;SDS011;4148;47.974;7.824;2023-07-28T12:11:04;5.27;;;4.27;;
8213;SDS011;4148;47.974;7.824;2023-07-28T12:13:46;4.87;;;3.60;;
8213;SDS011;4148;47.974;7.824;2023-07-28T12:16:31;5.80;;;4.40;;
8213;SDS011;4148;47.974;7.824;2023-07-28T12:19:02;4.63;;;4.20;;
8213;SDS011;4148;47.974;7.824;2023-07-28T12:21:31;5.80;;;4.57;;
8213;SDS011;4148;47.974;7.824;2023-07-28T12:23:59;5.03;;;4.40;;
8213;SDS011;4148;47.974;7.824;2023-07-28T12:26:31;4.70;;;4.20;;
8213;SDS011;4148;47.974;7.824;2023-07-28T12:29:01;5.53;;;4.17;;
8213;SDS011;4148;47.974;7.824;2023-07-28T12:31:36;4.93;;;4.43;;
8213;SDS011;4148;47.974;7.824;2023-07-28T12:34:07;5.27;;;4.30;;
8213;SDS011;4148;47.974;7.824;2023-07-28T12:36:35;4.13;;;3.73;;
8213;SDS011;4148;47.974;7.824;2023-07-28T12:39:05;5.50;;;4.10;;
8213;SDS011;4148;47.974;7.824;2023-07-28T12:41:38;4.33;;;3.90;;
8213;SDS011;4148;47.974;7.824;2023-07-28T12:44:08;5.37;;;4.87;;
8213;SDS011;4148;47.974;7.824;2023-07-28T12:46:41;4.73;;;4.23;;
8213;SDS011;4148;47.974;7.824;2023-07-28T12:49:09;4.33;;;3.67;;
8213;SDS011;4148;47.974;7.824;2023-07-28T12:51:46;5.67;;;3.73;;
8213;SDS011;4148;47.974;7.824;2023-07-28T12:54:17;6.13;;;3.90;;
8213;SDS011;4148;47.974;7.824;2023-07-28T12:56:47;3.90;;;3.40;;
8213;SDS011;4148;47.974;7.824;2023-07-28T12:59:36;4.27;;;3.87;;
8213;SDS011;4148;47.974;7.824;2023-07-28T13:02:24;4.43;;;3.57;;
8213;SDS011;4148;47.974;7.824;2023-07-28T13:04:52;4.60;;;3.03;;
8213;SDS011;4148;47.974;7.824;2023-07-28T13:07:20;4.03;;;3.53;;
8213;SDS011;4148;47.974;7.824;2023-07-28T13:09:51;4.13;;;3.60;;
8213;SDS011;4148;47.974;7.824;2023-07-28T13:12:20;4.03;;;3.50;;
8213;SDS011;4148;47.974;7.824;2023-07-28T13:14:51;3.57;;;3.27;;
8213;SDS011;4148;47.974;7.824;2023-07-28T13:17:19;4.37;;;3.50;;
8213;SDS011;4148;47.974;7.824;2023-07-28T13:19:46;3.60;;;2.77;;
8213;SDS011;4148;47.974;7.824;2023-07-28T13:22:14;2.60;;;2.33;;
8213;SDS011;4148;47.974;7.824;2023-07-28T13:24:42;2.90;;;2.60;;
8213;SDS011;4148;47.974;7.824;2023-07-28T13:27:10;2.90;;;2.20;;
8213;SDS011;4148;47.974;7.824;2023-07-28T13:29:39;2.37;;;1.77;;
8213;SDS011;4148;47.974;7.824;2023-07-28T13:32:15;2.67;;;1.80;;
8213;SDS011;4148;47.974;7.824;2023-07-28T13:34:44;3.00;;;1.53;;
8213;SDS011;4148;47.974;7.824;2023-07-28T13:37:12;2.50;;;1.60;;
8213;SDS011;4148;47.974;7.824;2023-07-28T13:39:40;3.00;;;1.60;;
8213;SDS011;4148;47.974;7.824;2023-07-28T13:42:08;2.00;;;1.67;;
8213;SDS011;4148;47.974;7.824;2023-07-28T13:44:39;1.90;;;1.70;;
8213;SDS011;4148;47.974;7.824;2023-07-28T13:47:22;3.30;;;2.00;;
8213;SDS011;4148;47.974;7.824;2023-07-28T13:49:50;2.53;;;2.33;;
8213;SDS011;4148;47.974;7.824;2023-07-28T13:52:18;3.33;;;2.50;;
8213;SDS011;4148;47.974;7.824;2023-07-28T13:54:47;2.97;;;2.37;;
8213;SDS011;4148;47.974;7.824;2023-07-28T13:57:18;2.50;;;2.20;;
8213;SDS011;4148;47.974;7.824;2023-07-28T13:59:47;3.67;;;2.40;;
8213;SDS011;4148;47.974;7.824;2023-07-28T14:02:16;2.87;;;2.10;;
8213;SDS011;4148;47.974;7.824;2023-07-28T14:04:44;4.20;;;2.20;;
8213;SDS011;4148;47.974;7.824;2023-07-28T14:07:12;2.10;;;1.90;;
8213;SDS011;4148;47.974;7.824;2023-07-28T14:09:40;3.73;;;2.40;;
8213;SDS011;4148;47.974;7.824;2023-07-28T14:12:08;3.00;;;2.23;;
8213;SDS011;4148;47.974;7.824;2023-07-28T14:14:36;2.57;;;2.37;;
8213;SDS011;4148;47.974;7.824;2023-07-28T14:17:05;3.43;;;2.47;;
8213;SDS011;4148;47.974;7.824;2023-07-28T14:19:33;2.60;;;2.10;;
8213;SDS011;4148;47.974;7.824;2023-07-28T14:22:01;3.50;;;2.57;;
8213;SDS011;4148;47.974;7.824;2023-07-28T14:24:29;2.40;;;2.00;;
8213;SDS011;4148;47.974;7.824;2023-07-28T14:26:56;3.20;;;2.27;;
8213;SDS011;4148;47.974;7.824;2023-07-28T14:29:24;2.40;;;2.20;;
8213;SDS011;4148;47.974;7.824;2023-07-28T14:31:52;2.53;;;2.10;;
8213;SDS011;4148;47.974;7.824;2023-07-28T14:34:22;2.73;;;2.20;;
8213;SDS011;4148;47.974;7.824;2023-07-28T14:36:50;3.97;;;2.27;;
8213;SDS011;4148;47.974;7.824;2023-07-28T14:39:17;4.13;;;2.60;;
8213;SDS011;4148;47.974;7.824;2023-07-28T14:41:45;3.13;;;2.10;;
8213;SDS011;4148;47.974;7.824;2023-07-28T14:44:13;2.77;;;2.23;;
8213;SDS011;4148;47.974;7.824;2023-07-28T14:46:43;3.00;;;2.20;;
8213;SDS011;4148;47.974;7.824;2023-07-28T14:49:12;5.00;;;2.53;;
8213;SDS011;4148;47.974;7.824;2023-07-28T14:51:41;3.03;;;2.20;;
8213;SDS011;4148;47.974;7.824;2023-07-28T14:54:09;2.67;;;2.00;;
8213;SDS011;4148;47.974;7.824;2023-07-28T14:56:37;3.63;;;2.27;;
8213;SDS011;4148;47.974;7.824;2023-07-28T14:59:05;3.00;;;2.13;;
8213;SDS011;4148;47.974;7.824;2023-07-28T15:01:33;2.60;;;2.03;;
8213;SDS011;4148;47.974;7.824;2023-07-28T15:04:01;4.60;;;2.07;;
8213;SDS011;4148;47.974;7.824;2023-07-28T15:06:30;3.13;;;2.20;;
8213;SDS011;4148;47.974;7.824;2023-07-28T15:09:01;2.40;;;2.20;;
8213;SDS011;4148;47.974;7.824;2023-07-28T15:11:29;3.60;;;2.00;;
8213;SDS011;4148;47.974;7.824;2023-07-28T15:13:57;3.03;;;2.10;;
8213;SDS011;4148;47.974;7.824;2023-07-28T15:16:25;2.40;;;2.10;;
8213;SDS011;4148;47.974;7.824;2023-07-28T15:18:53;5.53;;;2.40;;
8213;SDS011;4148;47.974;7.824;2023-07-28T15:21:21;2.60;;;2.40;;
8213;SDS011;4148;47.974;7.824;2023-07-28T15:23:53;2.30;;;2.10;;
8213;SDS011;4148;47.974;7.824;2023-07-28T15:26:22;3.80;;;2.67;;